Time;durP1;ratioP1;P1;durP2;ratioP2;P2;SDS_P1;SDS_P2;PMS_P1;PMS_P2;Temp;Humidity;BMP_temperature;BMP_pressure;BME280_temperature;BME280_humidity;BME280_pressure;Samples;Min_cycle;Max_cycle;Signal;HPM_P1;HPM_P2
2022/10/08 00:00:54;;;;;;;10.17;3.37;;;13.80;99.90;;;;;;5097717;28;20179;-72
2022/10/08 00:03:22;;;;;;;9.00;3.47;;;13.70;99.90;;;;;;5115809;28;20172;-73
2022/10/08 00:05:57;;;;;;;11.67;3.40;;;13.80;99.90;;;;;;5115822;28;20254;-71
2022/10/08 00:08:24;;;;;;;7.80;3.40;;;13.80;99.90;;;;;;5116171;28;20286;-72
2022/10/08 00:10:55;;;;;;;6.83;3.53;;;13.90;99.90;;;;;;5115529;28;20170;-72
2022/10/08 00:13:22;;;;;;;10.00;4.00;;;13.90;99.90;;;;;;5097379;28;20248;-72
2022/10/08 00:15:48;;;;;;;9.73;3.33;;;13.90;99.90;;;;;;5115784;28;20172;-72
2022/10/08 00:18:14;;;;;;;8.73;3.27;;;13.90;99.90;;;;;;5115256;28;20555;-72
2022/10/08 00:20:39;;;;;;;9.37;3.40;;;13.90;99.90;;;;;;5115687;28;20176;-71
2022/10/08 00:23:05;;;;;;;11.10;3.47;;;13.90;99.90;;;;;;5115539;28;20275;-73
2022/10/08 00:25:30;;;;;;;9.10;3.30;;;13.90;99.90;;;;;;5115380;28;20627;-72
2022/10/08 00:27:56;;;;;;;10.90;3.60;;;13.90;99.90;;;;;;5115275;28;20215;-71
2022/10/08 00:30:22;;;;;;;13.33;3.60;;;13.90;99.90;;;;;;5115203;28;20249;-71
2022/10/08 00:32:47;;;;;;;11.40;3.93;;;13.90;99.90;;;;;;5115094;28;20262;-71
2022/10/08 00:35:13;;;;;;;11.43;3.80;;;13.80;99.90;;;;;;5096962;28;20171;-72
2022/10/08 00:37:38;;;;;;;6.90;3.07;;;13.90;99.90;;;;;;5115262;28;20191;-72
2022/10/08 00:40:04;;;;;;;11.77;3.60;;;13.90;99.90;;;;;;5115740;28;20190;-71
2022/10/08 00:42:30;;;;;;;7.83;2.97;;;13.80;99.90;;;;;;5114987;28;20525;-72
2022/10/08 00:44:59;;;;;;;6.13;3.20;;;13.80;99.90;;;;;;5115091;28;20178;-73
2022/10/08 00:47:31;;;;;;;7.70;3.23;;;13.80;99.90;;;;;;5114645;28;20207;-73
2022/10/08 00:49:59;;;;;;;7.80;3.60;;;13.90;99.90;;;;;;5115044;28;20283;-72
2022/10/08 00:52:27;;;;;;;12.30;3.93;;;13.90;99.90;;;;;;5115388;28;20561;-73
2022/10/08 00:54:53;;;;;;;10.67;4.40;;;13.90;99.90;;;;;;5114717;28;20179;-72
2022/10/08 00:57:20;;;;;;;7.47;3.20;;;13.90;99.90;;;;;;5115062;28;20190;-73
2022/10/08 00:59:46;;;;;;;6.47;3.37;;;13.90;99.90;;;;;;5114703;28;20262;-73
2022/10/08 01:02:12;;;;;;;12.27;3.70;;;13.90;99.90;;;;;;5096576;28;20210;-73
2022/10/08 01:04:41;;;;;;;11.57;3.40;;;13.90;99.90;;;;;;5114907;28;20167;-72
2022/10/08 01:07:25;;;;;;;10.17;2.80;;;13.90;99.90;;;;;;5114671;28;20202;-72
2022/10/08 01:10:02;;;;;;;10.97;2.97;;;14.00;99.90;;;;;;5114578;28;20220;-72
2022/10/08 01:12:43;;;;;;;9.60;3.10;;;14.00;99.90;;;;;;5114785;28;20163;-72
2022/10/08 01:15:09;;;;;;;10.30;3.20;;;14.10;99.90;;;;;;5114314;28;20231;-72
2022/10/08 01:17:55;;;;;;;10.23;3.17;;;14.20;99.90;;;;;;5114660;28;20175;-72
2022/10/08 01:20:37;;;;;;;9.10;3.10;;;14.30;99.90;;;;;;5114641;28;20623;-72
2022/10/08 01:23:36;;;;;;;10.00;3.07;;;14.30;99.90;;;;;;5114458;28;20167;-72
2022/10/08 01:26:26;;;;;;;9.00;3.00;;;14.20;99.90;;;;;;5095997;28;20506;-72
2022/10/08 01:28:59;;;;;;;7.07;3.23;;;14.20;99.90;;;;;;5113218;28;20218;-72
2022/10/08 01:31:25;;;;;;;7.70;2.73;;;14.10;99.90;;;;;;5096112;28;20252;-72
2022/10/08 01:34:17;;;;;;;12.23;3.10;;;14.00;99.90;;;;;;5096164;28;20610;-73
2022/10/08 01:36:46;;;;;;;7.87;3.30;;;13.90;99.90;;;;;;5091310;28;20202;-71
2022/10/08 01:39:16;;;;;;;10.37;2.90;;;13.80;99.90;;;;;;5114210;28;20179;-72
2022/10/08 01:41:48;;;;;;;9.13;3.20;;;13.70;99.90;;;;;;5095962;28;20167;-73
2022/10/08 01:44:31;;;;;;;9.43;3.50;;;13.60;99.90;;;;;;5114067;28;20243;-72
2022/10/08 01:47:00;;;;;;;13.77;3.67;;;13.60;99.90;;;;;;5113793;28;20206;-73
2022/10/08 01:49:31;;;;;;;9.67;3.40;;;13.50;99.90;;;;;;5114035;28;20260;-74
2022/10/08 01:52:03;;;;;;;11.27;4.43;;;13.40;99.90;;;;;;5095663;28;20539;-73
2022/10/08 01:54:30;;;;;;;19.60;7.90;;;13.40;99.90;;;;;;5113903;28;20619;-73
2022/10/08 01:57:00;;;;;;;12.07;4.30;;;13.50;99.90;;;;;;5114057;28;20199;-73
2022/10/08 01:59:32;;;;;;;10.50;3.80;;;13.50;99.90;;;;;;5113538;28;20159;-73
2022/10/08 02:01:57;;;;;;;11.03;4.10;;;13.40;99.90;;;;;;5113833;28;20159;-73
2022/10/08 02:04:34;;;;;;;7.70;4.03;;;13.40;99.90;;;;;;5113857;28;20246;-73
2022/10/08 02:07:21;;;;;;;8.87;3.40;;;13.40;99.90;;;;;;5113827;28;20214;-73
2022/10/08 02:09:50;;;;;;;12.03;4.20;;;13.40;99.90;;;;;;5113842;28;20179;-73
2022/10/08 02:12:17;;;;;;;12.13;4.20;;;13.30;99.90;;;;;;5113443;28;20607;-73
2022/10/08 02:14:47;;;;;;;7.40;4.20;;;13.40;99.90;;;;;;5113811;28;20175;-73
2022/10/08 02:17:54;;;;;;;8.10;4.17;;;13.50;99.90;;;;;;5113643;28;20179;-72
2022/10/08 02:20:31;;;;;;;12.27;3.90;;;13.30;99.90;;;;;;5113660;28;20174;-74
2022/10/08 02:23:04;;;;;;;7.00;3.73;;;13.20;99.90;;;;;;5095361;28;20174;-72
2022/10/08 02:25:36;;;;;;;7.43;3.77;;;13.30;99.90;;;;;;5113479;28;20623;-72
2022/10/08 02:28:06;;;;;;;6.97;3.87;;;13.30;99.90;;;;;;5113661;28;20209;-73
2022/10/08 02:30:45;;;;;;;7.60;4.10;;;13.30;99.90;;;;;;5113274;28;20232;-72
2022/10/08 02:33:14;;;;;;;11.87;4.10;;;13.40;99.90;;;;;;5113523;28;20175;-73
2022/10/08 02:35:48;;;;;;;8.77;4.17;;;13.40;99.90;;;;;;5113496;28;20194;-73
2022/10/08 02:38:21;;;;;;;10.97;3.97;;;13.40;99.90;;;;;;5113479;28;20220;-72
2022/10/08 02:40:51;;;;;;;10.20;4.00;;;13.40;99.90;;;;;;5114122;28;20677;-72
2022/10/08 02:43:22;;;;;;;8.53;4.00;;;13.40;99.90;;;;;;5117253;28;20202;-72
2022/10/08 02:46:09;;;;;;;10.73;3.53;;;13.40;99.90;;;;;;5117555;28;20160;-71
2022/10/08 02:48:37;;;;;;;9.57;4.23;;;13.40;99.90;;;;;;5117444;28;20203;-74
2022/10/08 02:51:06;;;;;;;8.47;3.80;;;13.50;99.90;;;;;;5117427;28;20600;-73
2022/10/08 02:53:35;;;;;;;10.27;4.20;;;13.60;99.90;;;;;;5117222;28;20653;-72
2022/10/08 02:56:14;;;;;;;9.27;4.10;;;13.60;99.90;;;;;;5117017;28;20254;-74
2022/10/08 02:58:42;;;;;;;10.53;4.27;;;13.60;99.90;;;;;;5117270;28;20175;-72
2022/10/08 03:01:16;;;;;;;10.10;4.37;;;13.60;99.90;;;;;;5117144;28;20229;-72
2022/10/08 03:03:47;;;;;;;7.20;4.27;;;13.60;99.90;;;;;;5117087;28;20180;-72
2022/10/08 03:06:14;;;;;;;9.97;3.73;;;13.60;99.90;;;;;;5116958;28;20250;-72
2022/10/08 03:08:45;;;;;;;10.70;4.20;;;13.60;99.90;;;;;;5098994;28;20228;-74
2022/10/08 03:11:11;;;;;;;7.77;3.70;;;13.50;99.90;;;;;;5116821;28;20163;-73
2022/10/08 03:13:40;;;;;;;10.03;4.00;;;13.60;99.90;;;;;;5117030;28;20167;-74
2022/10/08 03:16:10;;;;;;;9.50;4.00;;;13.60;99.90;;;;;;5116741;28;20175;-74
2022/10/08 03:18:37;;;;;;;10.30;4.20;;;13.60;99.90;;;;;;5116489;28;20163;-73
2022/10/08 03:21:06;;;;;;;8.17;4.43;;;13.60;99.90;;;;;;5116500;28;20159;-73
2022/10/08 03:23:31;;;;;;;10.23;4.33;;;13.60;99.90;;;;;;5116987;28;20160;-73
2022/10/08 03:25:57;;;;;;;10.87;4.43;;;13.60;99.90;;;;;;5116267;28;20646;-73
2022/10/08 03:28:23;;;;;;;13.20;4.60;;;13.50;99.90;;;;;;5098599;28;20278;-74
2022/10/08 03:30:48;;;;;;;9.83;4.43;;;13.60;99.90;;;;;;5116213;28;20720;-74
2022/10/08 03:33:14;;;;;;;10.60;4.00;;;13.60;99.90;;;;;;5116274;28;20183;-73
2022/10/08 03:35:46;;;;;;;8.47;4.10;;;13.60;99.90;;;;;;5116691;28;20623;-74
2022/10/08 03:38:14;;;;;;;6.87;3.77;;;13.70;99.90;;;;;;5116577;28;20278;-73
2022/10/08 03:40:41;;;;;;;9.27;4.13;;;13.70;99.90;;;;;;5115990;28;20160;-74
2022/10/08 03:43:06;;;;;;;11.57;4.50;;;13.60;99.90;;;;;;5116302;28;20217;-73
2022/10/08 03:45:32;;;;;;;8.87;4.53;;;13.60;99.90;;;;;;5116055;28;20159;-74
2022/10/08 03:47:57;;;;;;;11.87;4.47;;;13.60;99.90;;;;;;5116141;28;20673;-73
2022/10/08 03:50:24;;;;;;;9.70;4.07;;;13.60;99.90;;;;;;5116135;28;20246;-73
2022/10/08 03:52:49;;;;;;;12.33;4.60;;;13.70;99.90;;;;;;5097617;28;20177;-73
2022/10/08 03:55:15;;;;;;;14.27;4.43;;;13.70;99.90;;;;;;5115720;28;20163;-75
2022/10/08 03:57:41;;;;;;;9.77;4.60;;;13.60;99.90;;;;;;5115653;28;20630;-73
2022/10/08 04:00:07;;;;;;;10.17;4.80;;;13.40;99.90;;;;;;5115837;28;20159;-73
2022/10/08 04:02:33;;;;;;;10.97;4.70;;;13.40;99.90;;;;;;5115187;28;20186;-72
2022/10/08 04:04:59;;;;;;;12.43;4.70;;;13.40;99.90;;;;;;5115550;28;20175;-73
2022/10/08 04:07:24;;;;;;;9.80;4.90;;;13.30;99.90;;;;;;5115778;28;20213;-73
2022/10/08 04:09:50;;;;;;;12.73;5.03;;;13.20;99.90;;;;;;5115249;28;20159;-73
2022/10/08 04:12:15;;;;;;;13.50;5.27;;;13.20;99.90;;;;;;5115696;28;20172;-72
2022/10/08 04:14:41;;;;;;;14.07;5.13;;;13.20;99.90;;;;;;5115682;28;20523;-73
2022/10/08 04:17:07;;;;;;;9.60;5.20;;;13.10;99.90;;;;;;5115690;28;20178;-73
2022/10/08 04:19:32;;;;;;;10.70;5.47;;;13.10;99.90;;;;;;5115454;28;20520;-72
2022/10/08 04:21:58;;;;;;;11.53;5.37;;;13.10;99.90;;;;;;5115250;28;20199;-73
2022/10/08 04:24:23;;;;;;;9.70;5.03;;;13.10;99.90;;;;;;5115309;28;20511;-74
2022/10/08 04:26:49;;;;;;;11.13;5.30;;;13.10;99.90;;;;;;5115292;28;20252;-74
2022/10/08 04:29:14;;;;;;;11.27;5.27;;;13.00;99.90;;;;;;5115229;28;20302;-74
2022/10/08 04:31:40;;;;;;;13.87;5.70;;;12.90;99.90;;;;;;5115287;28;20256;-74
2022/10/08 04:34:06;;;;;;;11.77;5.23;;;12.90;99.90;;;;;;5115344;28;20186;-74
2022/10/08 04:36:31;;;;;;;12.23;5.97;;;12.80;99.90;;;;;;5115167;28;20187;-74
2022/10/08 04:38:57;;;;;;;17.43;6.10;;;12.80;99.90;;;;;;5114882;28;20216;-74
2022/10/08 04:41:25;;;;;;;11.23;6.53;;;12.70;99.90;;;;;;5096586;28;20175;-73
2022/10/08 04:43:52;;;;;;;14.23;6.67;;;12.70;99.90;;;;;;5115442;28;20235;-74
2022/10/08 04:46:20;;;;;;;13.93;6.07;;;12.70;99.90;;;;;;5114841;28;20217;-74
2022/10/08 04:48:48;;;;;;;15.50;6.57;;;12.70;99.90;;;;;;5114670;28;20211;-74
2022/10/08 04:51:14;;;;;;;19.47;6.40;;;12.60;99.90;;;;;;5114857;28;20159;-74
2022/10/08 04:53:40;;;;;;;15.17;6.47;;;12.60;99.90;;;;;;5114835;28;20170;-74
2022/10/08 04:56:13;;;;;;;15.90;7.00;;;12.60;99.90;;;;;;5114453;28;20242;-73
2022/10/08 04:58:39;;;;;;;15.57;6.90;;;12.60;99.90;;;;;;5114426;28;20168;-74
2022/10/08 05:01:07;;;;;;;13.47;7.57;;;12.60;99.90;;;;;;5114667;28;20230;-74
2022/10/08 05:03:37;;;;;;;15.60;7.17;;;12.60;99.90;;;;;;5113864;28;20266;-73
2022/10/08 05:06:03;;;;;;;15.67;7.27;;;12.50;99.90;;;;;;5096444;28;20167;-73
2022/10/08 05:08:28;;;;;;;17.57;7.17;;;12.50;99.90;;;;;;5114244;28;20199;-73
2022/10/08 05:10:54;;;;;;;15.20;7.23;;;12.50;99.90;;;;;;5114754;28;20159;-73
2022/10/08 05:13:20;;;;;;;13.77;7.23;;;12.40;99.90;;;;;;5113539;28;20650;-73
2022/10/08 05:15:45;;;;;;;17.63;8.17;;;12.50;99.90;;;;;;5114541;28;20167;-73
2022/10/08 05:18:11;;;;;;;15.03;7.27;;;12.50;99.90;;;;;;5114222;28;20163;-74
2022/10/08 05:20:36;;;;;;;14.40;7.47;;;12.50;99.90;;;;;;5113892;28;20169;-75
2022/10/08 05:23:02;;;;;;;24.23;7.80;;;12.50;99.90;;;;;;5113656;28;20163;-73
2022/10/08 05:25:32;;;;;;;18.13;7.77;;;12.60;99.90;;;;;;5114172;28;20191;-73
2022/10/08 05:27:58;;;;;;;18.33;7.90;;;12.60;99.90;;;;;;5096082;28;20215;-74
2022/10/08 05:30:24;;;;;;;16.73;7.63;;;12.60;99.90;;;;;;5113990;28;20226;-73
2022/10/08 05:32:49;;;;;;;13.63;7.13;;;12.70;99.90;;;;;;5114173;28;20167;-73
2022/10/08 05:35:15;;;;;;;16.07;7.60;;;12.70;99.90;;;;;;5113708;28;20607;-75
2022/10/08 05:37:41;;;;;;;18.70;7.97;;;12.60;99.90;;;;;;5113762;28;20194;-75
2022/10/08 05:40:06;;;;;;;21.17;8.30;;;12.60;99.90;;;;;;5113885;28;20546;-74
2022/10/08 05:42:32;;;;;;;18.67;7.80;;;12.60;99.90;;;;;;5113426;28;20179;-72
2022/10/08 05:44:58;;;;;;;17.83;8.03;;;12.50;99.90;;;;;;5113748;28;20171;-75
2022/10/08 05:47:23;;;;;;;16.47;7.40;;;12.50;99.90;;;;;;5113671;28;20256;-75
2022/10/08 05:49:49;;;;;;;19.40;7.70;;;12.50;99.90;;;;;;5113063;28;20180;-75
2022/10/08 05:52:14;;;;;;;15.57;8.23;;;12.50;99.90;;;;;;5113816;28;20174;-75
2022/10/08 05:54:40;;;;;;;16.80;8.63;;;12.50;99.90;;;;;;5113456;28;20171;-75
2022/10/08 05:57:06;;;;;;;17.57;8.07;;;12.50;99.90;;;;;;5113319;28;20183;-75
2022/10/08 05:59:31;;;;;;;15.07;8.27;;;12.40;99.90;;;;;;5113467;28;20167;-75
2022/10/08 06:01:57;;;;;;;11.07;7.00;;;12.40;99.90;;;;;;5113736;28;20521;-75
2022/10/08 06:04:22;;;;;;;17.37;8.60;;;12.30;99.90;;;;;;5113058;28;20220;-75
2022/10/08 06:06:48;;;;;;;17.07;7.93;;;12.20;99.90;;;;;;5113457;28;20199;-73
2022/10/08 06:09:17;;;;;;;14.10;8.20;;;12.20;99.90;;;;;;5113222;28;20182;-73
2022/10/08 06:11:43;;;;;;;22.80;9.30;;;12.20;99.90;;;;;;5112938;28;20159;-75
2022/10/08 06:14:13;;;;;;;23.93;8.73;;;12.20;99.90;;;;;;5094921;28;20178;-73
2022/10/08 06:16:39;;;;;;;15.97;7.83;;;12.30;99.90;;;;;;5113567;28;20262;-74
2022/10/08 06:19:07;;;;;;;21.23;8.47;;;12.40;99.90;;;;;;5112646;28;20258;-74
2022/10/08 06:21:34;;;;;;;16.83;8.27;;;12.50;99.90;;;;;;5095115;28;20504;-73
2022/10/08 06:24:01;;;;;;;19.47;8.80;;;12.60;99.90;;;;;;5112801;28;20199;-74
2022/10/08 06:26:31;;;;;;;22.53;8.10;;;12.60;99.90;;;;;;5113099;28;20167;-75
2022/10/08 06:28:56;;;;;;;12.30;7.40;;;12.80;99.90;;;;;;5094670;28;20570;-75
2022/10/08 06:31:22;;;;;;;14.63;7.20;;;13.10;99.90;;;;;;5094698;28;20175;-75
2022/10/08 06:33:48;;;;;;;13.70;7.40;;;13.20;99.90;;;;;;5112981;28;20208;-75
2022/10/08 06:36:24;;;;;;;18.63;7.50;;;13.30;99.90;;;;;;5094521;28;20222;-76
2022/10/08 06:38:50;;;;;;;16.20;7.13;;;13.30;99.90;;;;;;5094775;28;20265;-76
2022/10/08 06:41:16;;;;;;;17.47;6.60;;;13.30;99.90;;;;;;5112403;28;20171;-76
2022/10/08 06:43:42;;;;;;;15.73;6.97;;;13.20;99.90;;;;;;5113071;28;20250;-75
2022/10/08 06:46:08;;;;;;;17.23;6.97;;;13.20;99.90;;;;;;5112957;28;20175;-75
2022/10/08 06:48:33;;;;;;;17.17;6.83;;;13.10;99.90;;;;;;5112618;28;20257;-74
2022/10/08 06:50:59;;;;;;;12.63;6.90;;;13.20;99.90;;;;;;5113190;28;20171;-75
2022/10/08 06:53:25;;;;;;;15.50;7.47;;;13.20;99.90;;;;;;5094334;28;20250;-74
2022/10/08 06:55:58;;;;;;;13.23;6.83;;;13.30;99.90;;;;;;5094329;28;20175;-76
2022/10/08 06:58:24;;;;;;;11.27;6.40;;;13.40;99.90;;;;;;5094535;28;20202;-74
2022/10/08 07:00:59;;;;;;;11.77;6.50;;;14.00;99.90;;;;;;5112138;28;20175;-76
2022/10/08 07:03:24;;;;;;;11.07;5.40;;;14.90;99.90;;;;;;5112716;28;20181;-75
2022/10/08 07:05:50;;;;;;;11.93;4.93;;;16.10;99.90;;;;;;5112821;28;20176;-77
2022/10/08 07:08:15;;;;;;;8.27;4.57;;;17.20;99.90;;;;;;5094478;28;20211;-77
2022/10/08 07:10:41;;;;;;;15.55;4.93;;;18.50;99.90;;;;;;5120917;28;20171;-78
2022/10/08 07:13:06;;;;;;;8.55;4.78;;;19.70;99.90;;;;;;5127046;28;20187;-78
2022/10/08 07:15:32;;;;;;;6.35;4.13;;;20.40;99.90;;;;;;5126574;28;20207;-80
2022/10/08 07:17:57;;;;;;;10.07;4.70;;;20.90;99.90;;;;;;5118533;28;20627;-79
2022/10/08 07:20:23;;;;;;;7.82;4.78;;;22.10;99.90;;;;;;5112319;28;20167;-78
2022/10/08 07:22:49;;;;;;;8.32;4.10;;;22.90;98.30;;;;;;5112442;28;20178;-78
2022/10/08 07:25:14;;;;;;;8.75;4.38;;;23.10;97.20;;;;;;5112768;28;20193;-79
2022/10/08 07:27:40;;;;;;;9.18;3.67;;;21.90;97.60;;;;;;5114982;28;20603;-78
2022/10/08 07:30:06;;;;;;;10.30;4.35;;;21.00;99.30;;;;;;5123333;28;20295;-79
2022/10/08 07:32:31;;;;;;;8.57;3.95;;;19.50;99.90;;;;;;5127308;28;20199;-79
2022/10/08 07:34:57;;;;;;;11.63;4.22;;;18.20;99.90;;;;;;5124415;28;20641;-78
2022/10/08 07:37:23;;;;;;;11.82;4.38;;;18.40;99.90;;;;;;5124259;28;20201;-77
2022/10/08 07:39:48;;;;;;;9.75;4.50;;;18.90;99.90;;;;;;5112324;28;20167;-77
2022/10/08 07:42:14;;;;;;;7.60;3.97;;;19.00;99.90;;;;;;5130830;28;20171;-79
2022/10/08 07:44:40;;;;;;;10.73;4.55;;;19.00;99.90;;;;;;5107150;28;20167;-79
2022/10/08 07:47:07;;;;;;;10.57;4.50;;;18.40;99.90;;;;;;5127179;28;20314;-78
2022/10/08 07:49:32;;;;;;;9.52;3.92;;;18.00;99.90;;;;;;5133151;28;20175;-78
2022/10/08 07:51:58;;;;;;;11.70;4.03;;;17.80;99.90;;;;;;5128376;28;20171;-78
2022/10/08 07:54:23;;;;;;;12.68;4.13;;;17.50;99.90;;;;;;5119363;28;20164;-78
2022/10/08 07:56:49;;;;;;;10.88;3.65;;;17.60;99.90;;;;;;5130990;28;20217;-78
2022/10/08 07:59:15;;;;;;;9.50;3.88;;;17.40;99.90;;;;;;5121964;28;20181;-78
2022/10/08 08:01:41;;;;;;;8.55;3.45;;;17.90;99.90;;;;;;5121845;28;20572;-78
2022/10/08 08:04:09;;;;;;;6.20;3.63;;;19.10;99.90;;;;;;5124591;28;20180;-79
2022/10/08 08:06:43;;;;;;;6.40;3.00;;;20.90;99.90;;;;;;5115280;28;20199;-80
2022/10/08 08:09:10;;;;;;;6.70;3.65;;;22.10;99.20;;;;;;5115721;28;20723;-79
2022/10/08 08:11:36;;;;;;;5.80;3.10;;;23.40;96.00;;;;;;5115473;28;20290;-79
2022/10/08 08:14:02;;;;;;;10.68;3.38;;;24.20;93.80;;;;;;5115774;28;20243;-78
2022/10/08 08:16:28;;;;;;;6.53;3.58;;;25.20;91.00;;;;;;5114704;28;20242;-79
2022/10/08 08:18:59;;;;;;;4.65;3.13;;;25.80;87.40;;;;;;5115178;28;20168;-79
2022/10/08 08:21:30;;;;;;;7.88;3.50;;;26.00;84.30;;;;;;5115156;28;20171;-77
2022/10/08 08:23:58;;;;;;;5.70;3.00;;;26.50;80.50;;;;;;5115120;28;20175;-79
2022/10/08 08:26:33;;;;;;;7.60;3.40;;;26.70;77.70;;;;;;5115181;28;20643;-79
2022/10/08 08:29:01;;;;;;;7.88;3.20;;;27.10;76.00;;;;;;5114717;28;20182;-77
2022/10/08 08:31:34;;;;;;;7.43;2.75;;;27.20;72.70;;;;;;5131938;27;20220;-78
2022/10/08 08:34:02;;;;;;;8.15;2.95;;;26.80;73.70;;;;;;5135641;27;20201;-79
2022/10/08 08:36:31;;;;;;;8.13;2.83;;;27.30;71.20;;;;;;5135486;27;20179;-78
2022/10/08 08:38:58;;;;;;;5.40;3.00;;;27.00;69.60;;;;;;5135765;27;20190;-79
2022/10/08 08:42:21;;;;;;;5.43;2.50;;;27.60;67.60;;;;;;5134904;27;20618;-78
2022/10/08 08:44:55;;;;;;;5.80;2.85;;;28.00;65.30;;;;;;5023185;28;20243;-78
2022/10/08 08:47:39;;;;;;;3.92;2.35;;;27.90;62.20;;;;;;5032014;28;20222;-79
2022/10/08 08:50:30;;;;;;;7.15;2.42;;;27.50;99.90;;;;;;5015435;28;20216;-79
2022/10/08 08:52:56;;;;;;;7.05;2.22;;;27.60;99.90;;;;;;5031946;28;20185;-79
2022/10/08 08:55:40;;;;;;;6.05;1.83;;;27.00;99.90;;;;;;5031535;28;20178;-79
2022/10/08 08:58:33;;;;;;;5.70;2.10;;;26.60;99.90;;;;;;5031501;28;20178;-79
2022/10/08 09:01:39;;;;;;;4.03;1.50;;;26.20;99.90;;;;;;5031911;28;20520;-80
2022/10/08 09:04:23;;;;;;;4.28;2.00;;;26.80;99.90;;;;;;5015005;28;20174;-80
2022/10/08 09:06:51;;;;;;;7.82;2.15;;;25.90;99.90;;;;;;5031274;28;20190;-80
2022/10/08 09:09:19;;;;;;;3.83;2.33;;;25.90;99.90;;;;;;5031228;28;20177;-80
2022/10/08 09:11:46;;;;;;;6.82;2.03;;;25.80;99.90;;;;;;5031973;28;20321;-79
2022/10/08 09:14:31;;;;;;;4.00;1.77;;;25.70;99.90;;;;;;5031482;28;20236;-79
2022/10/08 09:16:58;;;;;;;3.22;1.50;;;25.80;99.90;;;;;;5031227;28;20327;-80
2022/10/08 09:19:24;;;;;;;4.88;1.88;;;26.10;99.90;;;;;;5110709;27;20205;-79
2022/10/08 09:21:49;;;;;;;5.90;1.98;;;26.60;99.90;;;;;;5134662;27;20642;-79
2022/10/08 09:24:16;;;;;;;6.20;1.75;;;26.30;99.90;;;;;;5134289;27;20181;-78
2022/10/08 09:26:42;;;;;;;4.93;1.85;;;25.20;99.90;;;;;;5134228;27;20523;-80
2022/10/08 09:29:32;;;;;;;3.33;1.73;;;25.60;99.90;;;;;;5131206;27;20227;-80
2022/10/08 09:31:58;;;;;;;3.88;1.83;;;25.50;99.90;;;;;;5106783;28;20175;-79
2022/10/08 09:34:24;;;;;;;4.10;2.10;;;26.30;99.90;;;;;;5113967;28;20198;-79
2022/10/08 09:37:02;;;;;;;4.85;1.83;;;26.20;99.90;;;;;;5113839;28;20668;-80
2022/10/08 09:39:36;;;;;;;4.88;1.73;;;27.10;99.90;;;;;;5113965;28;20178;-80
2022/10/08 09:42:16;;;;;;;2.72;1.70;;;27.60;99.90;;;;;;5094964;28;20168;-81
2022/10/08 09:44:57;;;;;;;2.53;1.73;;;28.00;99.90;;;;;;5113486;28;20653;-80
2022/10/08 09:47:25;;;;;;;4.65;1.85;;;27.40;99.90;;;;;;5113612;28;20242;-80
2022/10/08 09:50:17;;;;;;;2.80;1.85;;;26.20;99.90;;;;;;5112817;28;20171;-79
2022/10/08 09:52:43;;;;;;;4.57;1.83;;;25.40;99.90;;;;;;5095723;28;20202;-79
2022/10/08 09:55:20;;;;;;;2.80;1.58;;;24.70;99.90;;;;;;5113706;28;20533;-80
2022/10/08 09:57:49;;;;;;;3.60;1.60;;;23.80;99.90;;;;;;5094497;28;20254;-80
2022/10/08 10:00:27;;;;;;;4.20;1.90;;;23.40;99.90;;;;;;5113311;28;20254;-79
2022/10/08 10:02:55;;;;;;;3.65;1.80;;;23.20;99.90;;;;;;5113761;28;20171;-80
2022/10/08 10:05:29;;;;;;;5.35;1.65;;;23.20;99.90;;;;;;5113045;28;20160;-79
2022/10/08 10:07:54;;;;;;;5.07;1.90;;;23.90;99.90;;;;;;5113385;28;20203;-79
2022/10/08 10:10:37;;;;;;;6.85;1.85;;;24.50;99.90;;;;;;5113589;28;20167;-81
2022/10/08 10:13:23;;;;;;;6.63;2.45;;;25.20;99.90;;;;;;5094891;28;20171;-79
2022/10/08 10:16:00;;;;;;;4.28;2.13;;;24.90;99.90;;;;;;5095873;28;20177;-80
2022/10/08 10:18:37;;;;;;;3.15;1.63;;;24.70;99.90;;;;;;5094846;28;20198;-80
2022/10/08 10:21:07;;;;;;;5.70;2.35;;;24.80;99.90;;;;;;5113125;28;20174;-79
2022/10/08 10:24:16;;;;;;;4.88;1.92;;;24.70;99.90;;;;;;5113467;28;20198;-79
2022/10/08 10:26:44;;;;;;;3.33;1.77;;;24.50;99.90;;;;;;5075423;28;20617;-77
2022/10/08 10:29:15;;;;;;;4.70;1.90;;;24.10;99.90;;;;;;5094501;28;20222;-79
2022/10/08 10:31:41;;;;;;;7.40;2.40;;;24.80;99.90;;;;;;5112730;28;20633;-80
2022/10/08 10:34:15;;;;;;;5.60;2.58;;;24.60;99.90;;;;;;5112625;28;20199;-80
2022/10/08 10:37:03;;;;;;;3.03;1.90;;;24.10;99.90;;;;;;5112991;28;20183;-80
2022/10/08 10:39:49;;;;;;;3.80;1.63;;;24.90;99.90;;;;;;5112304;28;20179;-79
2022/10/08 10:42:18;;;;;;;3.95;1.80;;;25.60;99.90;;;;;;5112411;28;20167;-80
2022/10/08 10:45:00;;;;;;;6.95;2.47;;;24.70;99.90;;;;;;5112777;28;20179;-80
2022/10/08 10:47:31;;;;;;;4.32;2.05;;;24.40;99.90;;;;;;5113148;28;20347;-80
2022/10/08 10:49:59;;;;;;;5.22;1.58;;;24.60;99.90;;;;;;5112984;28;20167;-79
2022/10/08 10:52:43;;;;;;;4.25;1.83;;;24.10;99.90;;;;;;5112425;28;20658;-78
2022/10/08 10:55:26;;;;;;;4.40;1.67;;;24.30;99.90;;;;;;5112596;28;20178;-78
2022/10/08 10:57:58;;;;;;;6.05;2.33;;;24.20;99.90;;;;;;5112753;28;20198;-79
2022/10/08 11:00:57;;;;;;;3.88;1.52;;;24.00;99.90;;;;;;5112782;28;20167;-78
2022/10/08 11:03:29;;;;;;;3.88;1.88;;;23.20;99.90;;;;;;5116011;28;20562;-77
2022/10/08 11:06:37;;;;;;;2.75;1.30;;;22.90;99.90;;;;;;5116244;28;20250;-78
2022/10/08 11:09:18;;;;;;;5.35;2.10;;;22.20;99.90;;;;;;5102668;28;20678;-77
2022/10/08 11:11:53;;;;;;;2.20;1.10;;;22.20;99.90;;;;;;5097696;28;20175;-77
2022/10/08 11:14:18;;;;;;;6.85;1.80;;;22.50;99.90;;;;;;5116532;28;20167;-77
2022/10/08 11:17:00;;;;;;;3.45;1.70;;;23.00;99.90;;;;;;5116626;28;20163;-78
2022/10/08 11:19:46;;;;;;;7.57;1.80;;;23.50;99.90;;;;;;5116659;28;20220;-77
2022/10/08 11:22:22;;;;;;;7.95;2.08;;;23.90;99.90;;;;;;5115943;28;20174;-78
2022/10/08 11:25:19;;;;;;;5.97;2.22;;;24.10;99.90;;;;;;5116105;28;20167;-78
2022/10/08 11:27:57;;;;;;;5.03;1.88;;;23.80;99.90;;;;;;5116446;28;20205;-78
2022/10/08 11:30:30;;;;;;;6.47;2.10;;;23.60;99.90;;;;;;5115666;28;20248;-78
2022/10/08 11:32:57;;;;;;;7.50;1.83;;;23.20;99.90;;;;;;5116465;28;20179;-79
2022/10/08 11:35:36;;;;;;;3.42;1.67;;;22.90;99.90;;;;;;5115208;28;20630;-78
2022/10/08 11:38:24;;;;;;;7.93;1.77;;;22.10;99.90;;;;;;5116159;28;20195;-79
2022/10/08 11:41:09;;;;;;;3.67;1.42;;;21.60;99.90;;;;;;5115419;28;20179;-79
2022/10/08 11:43:37;;;;;;;7.28;1.80;;;20.60;99.90;;;;;;5116261;28;20206;-77
2022/10/08 11:46:35;;;;;;;3.08;1.77;;;20.20;99.90;;;;;;5116143;28;20164;-77
2022/10/08 11:49:10;;;;;;;3.80;1.38;;;20.30;1.00;;;;;;5108602;28;20222;-77
2022/10/08 11:51:37;;;;;;;3.97;1.60;;;20.80;1.00;;;;;;5097354;28;20167;-77
2022/10/08 11:54:12;;;;;;;6.35;1.52;;;21.10;1.00;;;;;;5114236;28;20167;-78
2022/10/08 11:57:12;;;;;;;5.40;1.60;;;21.50;99.90;;;;;;5115545;28;20171;-78
2022/10/08 11:59:57;;;;;;;3.53;2.20;;;21.30;99.90;;;;;;5114892;28;20175;-78
2022/10/08 12:02:35;;;;;;;5.50;1.40;;;21.30;99.90;;;;;;5115420;28;20175;-78
2022/10/08 12:05:32;;;;;;;4.07;1.70;;;21.40;99.90;;;;;;5115100;28;20155;-78
2022/10/08 12:08:01;;;;;;;4.68;1.50;;;21.30;99.90;;;;;;5115161;28;20685;-78
2022/10/08 12:10:36;;;;;;;9.20;1.88;;;21.30;99.90;;;;;;5115583;28;20179;-78
2022/10/08 12:13:10;;;;;;;2.80;1.40;;;21.00;99.90;;;;;;5114675;28;20186;-77
2022/10/08 12:15:37;;;;;;;2.03;1.17;;;20.90;99.90;;;;;;5115311;28;20163;-78
2022/10/08 12:18:09;;;;;;;5.70;1.92;;;20.80;99.90;;;;;;5115581;28;20159;-78
2022/10/08 12:20:37;;;;;;;4.95;1.45;;;20.70;99.90;;;;;;5114975;28;20244;-77
2022/10/08 12:23:21;;;;;;;3.15;1.55;;;20.60;99.90;;;;;;5114607;28;20236;-78
2022/10/08 12:25:59;;;;;;;3.20;1.50;;;20.40;99.90;;;;;;5114986;28;20247;-78
2022/10/08 12:28:27;;;;;;;3.42;1.60;;;20.00;1.00;;;;;;5115201;28;20400;-77
2022/10/08 12:30:57;;;;;;;4.70;1.80;;;19.80;1.00;;;;;;5115027;28;20215;-77
2022/10/08 12:33:24;;;;;;;5.50;2.10;;;19.70;1.00;;;;;;5114843;28;20171;-77
2022/10/08 12:36:01;;;;;;;3.65;1.42;;;19.50;1.00;;;;;;5114665;28;20312;-77
2022/10/08 12:38:57;;;;;;;6.40;1.50;;;19.40;1.00;;;;;;5114641;28;20642;-77
2022/10/08 12:41:47;;;;;;;4.22;1.45;;;19.50;1.00;;;;;;5114876;28;20233;-77
2022/10/08 12:44:47;;;;;;;4.82;1.48;;;19.80;1.00;;;;;;5114107;28;20217;-77
2022/10/08 12:47:35;;;;;;;6.63;1.95;;;20.10;1.00;;;;;;5059793;28;20226;-77
2022/10/08 12:50:32;;;;;;;3.72;1.70;;;20.30;1.00;;;;;;5114526;28;20176;-77
2022/10/08 12:53:02;;;;;;;4.85;1.70;;;20.40;1.00;;;;;;5114332;28;20167;-76
2022/10/08 12:55:30;;;;;;;5.55;2.00;;;20.30;99.90;;;;;;5114034;28;20167;-76
2022/10/08 12:57:56;;;;;;;2.90;1.50;;;20.40;1.00;;;;;;5095837;28;20179;-76
2022/10/08 13:00:30;;;;;;;3.83;1.90;;;20.30;1.00;;;;;;5114074;28;20592;-76
2022/10/08 13:03:24;;;;;;;6.90;2.92;;;20.00;1.00;;;;;;5114321;28;20246;-76
2022/10/08 13:05:52;;;;;;;16.80;3.20;;;20.00;1.00;;;;;;5108666;28;20186;-76